createdAt,value
2023-01-29T00:02:05.647Z,10.80
2023-01-29T00:04:34.287Z,14.40
2023-01-29T00:07:02.367Z,16.47
2023-01-29T00:09:31.471Z,19.40
2023-01-29T00:11:59.716Z,21.63
2023-01-29T00:14:28.690Z,25.00
2023-01-29T00:16:56.914Z,27.03
2023-01-29T00:19:26.435Z,31.23
2023-01-29T00:21:54.726Z,19.30
2023-01-29T00:24:23.048Z,19.63
2023-01-29T00:26:51.277Z,18.47
2023-01-29T00:29:19.692Z,18.33
2023-01-29T00:31:47.809Z,17.83
2023-01-29T00:34:15.891Z,19.13
2023-01-29T00:36:46.468Z,19.07
2023-01-29T00:39:14.512Z,20.37
2023-01-29T00:41:59.951Z,18.27
2023-01-29T00:44:45.612Z,19.47
2023-01-29T00:47:27.417Z,19.90
2023-01-29T00:49:55.576Z,18.30
2023-01-29T00:52:25.700Z,19.43
2023-01-29T00:54:54.676Z,18.60
2023-01-29T00:57:22.959Z,22.20
2023-01-29T00:59:51.031Z,22.57
2023-01-29T01:02:36.728Z,23.40
2023-01-29T01:05:06.266Z,22.93
2023-01-29T01:07:35.769Z,20.53
2023-01-29T01:10:21.127Z,21.07
2023-01-29T01:12:50.719Z,25.20
2023-01-29T01:15:19.434Z,18.63
2023-01-29T01:17:48.983Z,15.93
2023-01-29T01:20:17.669Z,19.23
2023-01-29T01:22:47.239Z,22.90
2023-01-29T01:25:15.514Z,33.40
2023-01-29T01:27:43.606Z,24.80
2023-01-29T01:30:13.669Z,21.90
2023-01-29T01:32:41.812Z,21.77
2023-01-29T01:35:11.203Z,21.30
2023-01-29T01:37:39.384Z,22.07
2023-01-29T01:40:13.000Z,20.17
2023-01-29T01:42:41.393Z,21.07
2023-01-29T01:45:21.391Z,25.40
2023-01-29T01:47:53.225Z,19.27
2023-01-29T01:50:25.958Z,22.57
2023-01-29T01:53:03.755Z,19.30
2023-01-29T01:55:35.415Z,19.70
2023-01-29T01:58:10.992Z,19.50
2023-01-29T02:00:40.260Z,20.23
2023-01-29T02:03:26.296Z,18.37
2023-01-29T02:06:16.495Z,17.87
2023-01-29T02:09:10.004Z,17.27
2023-01-29T02:11:40.106Z,16.13
2023-01-29T02:14:08.470Z,17.63
2023-01-29T02:16:37.446Z,19.43
2023-01-29T02:19:08.471Z,19.30
2023-01-29T02:22:13.289Z,20.77
2023-01-29T02:25:13.262Z,21.33
2023-01-29T02:28:17.316Z,18.23
2023-01-29T02:30:51.860Z,20.50
2023-01-29T02:33:27.580Z,20.23
2023-01-29T02:36:00.851Z,22.70
2023-01-29T02:38:37.630Z,20.33
2023-01-29T02:41:14.926Z,22.93
2023-01-29T02:43:47.996Z,22.53
2023-01-29T02:46:21.251Z,20.50
2023-01-29T02:48:56.976Z,22.47
2023-01-29T02:51:31.439Z,22.97
2023-01-29T02:54:05.374Z,21.87
2023-01-29T02:56:40.597Z,23.47
2023-01-29T02:59:14.024Z,23.53
2023-01-29T03:01:48.389Z,19.17
2023-01-29T03:04:24.137Z,22.33
2023-01-29T03:06:58.501Z,21.33
2023-01-29T03:09:32.121Z,18.37
2023-01-29T03:12:19.932Z,18.03
2023-01-29T03:15:10.011Z,16.87
2023-01-29T03:17:43.085Z,18.17
2023-01-29T03:20:17.865Z,18.77
2023-01-29T03:22:51.733Z,19.60
2023-01-29T03:25:40.667Z,17.70
2023-01-29T03:28:29.024Z,19.53
2023-01-29T03:31:22.067Z,17.53
2023-01-29T03:33:52.856Z,17.13
2023-01-29T03:36:28.130Z,19.30
2023-01-29T03:38:56.125Z,18.33
2023-01-29T03:41:29.381Z,20.53
2023-01-29T03:44:15.500Z,19.73
2023-01-29T03:46:53.784Z,17.87
2023-01-29T03:49:31.521Z,16.83
2023-01-29T03:52:05.629Z,17.23
2023-01-29T03:54:42.042Z,17.23
2023-01-29T03:57:16.660Z,16.83
2023-01-29T03:59:51.590Z,16.97
2023-01-29T04:02:28.166Z,14.60
2023-01-29T04:05:01.077Z,14.63
2023-01-29T04:07:33.622Z,14.10
2023-01-29T04:10:06.817Z,15.93
2023-01-29T04:12:39.543Z,15.93
2023-01-29T04:15:12.269Z,15.17
2023-01-29T04:17:44.970Z,17.20
2023-01-29T04:20:13.804Z,17.20
2023-01-29T04:22:46.473Z,27.53
2023-01-29T04:25:19.532Z,24.37
2023-01-29T04:27:58.617Z,22.30
2023-01-29T04:30:36.671Z,30.90
2023-01-29T04:33:18.556Z,28.63
2023-01-29T04:36:02.172Z,34.50
2023-01-29T04:38:41.700Z,36.47
2023-01-29T04:41:15.546Z,26.40
2023-01-29T04:43:49.336Z,32.83
2023-01-29T04:46:21.795Z,23.07
2023-01-29T04:49:05.385Z,19.03
2023-01-29T04:51:43.317Z,23.00
2023-01-29T04:54:19.835Z,23.30
2023-01-29T04:56:56.505Z,20.87
2023-01-29T04:59:30.071Z,20.43
2023-01-29T05:02:00.473Z,21.67
2023-01-29T05:04:33.505Z,20.97
2023-01-29T05:07:05.532Z,9.73
2023-01-29T05:09:35.503Z,17.50
2023-01-29T05:12:04.801Z,16.80
2023-01-29T05:14:36.759Z,18.77
2023-01-29T05:17:10.583Z,17.67
2023-01-29T05:19:40.061Z,22.57
2023-01-29T05:22:11.821Z,20.20
2023-01-29T05:24:39.904Z,18.97
2023-01-29T05:27:26.153Z,16.47
2023-01-29T05:29:55.608Z,18.30
2023-01-29T05:32:23.678Z,18.53
2023-01-29T05:34:53.021Z,16.67
2023-01-29T05:37:21.131Z,19.23
2023-01-29T05:39:49.121Z,16.97
2023-01-29T05:42:17.226Z,22.30
2023-01-29T05:44:45.284Z,18.73
2023-01-29T05:47:13.433Z,20.57
2023-01-29T05:49:41.511Z,19.17
2023-01-29T05:52:11.035Z,16.73
2023-01-29T05:54:39.146Z,19.50
2023-01-29T05:57:07.195Z,20.80
2023-01-29T05:59:35.228Z,25.37
2023-01-29T06:02:03.281Z,23.83
2023-01-29T06:04:31.265Z,13.90
2023-01-29T06:06:59.377Z,13.67
2023-01-29T06:09:28.772Z,14.07
2023-01-29T06:11:56.819Z,16.90
2023-01-29T06:14:24.909Z,17.40
2023-01-29T06:16:52.950Z,14.37
2023-01-29T06:19:21.641Z,19.30
2023-01-29T06:21:49.718Z,15.30
2023-01-29T06:24:17.970Z,16.37
2023-01-29T06:26:47.464Z,15.33
2023-01-29T06:29:15.726Z,18.67
2023-01-29T06:31:43.816Z,16.00
2023-01-29T06:34:12.010Z,16.57
2023-01-29T06:36:41.647Z,17.20
2023-01-29T06:39:09.714Z,16.63
2023-01-29T06:41:37.859Z,18.77
2023-01-29T06:44:07.518Z,24.43
2023-01-29T06:46:35.539Z,22.70
2023-01-29T06:49:03.648Z,18.60
2023-01-29T06:51:31.720Z,18.13
2023-01-29T06:53:59.781Z,19.53
2023-01-29T06:56:27.835Z,16.97
2023-01-29T06:58:55.838Z,21.40
2023-01-29T07:01:35.749Z,16.03
2023-01-29T07:04:04.733Z,14.17
2023-01-29T07:06:32.933Z,15.13
2023-01-29T07:09:01.106Z,15.30
2023-01-29T07:11:29.100Z,20.67
2023-01-29T07:13:57.149Z,19.67
2023-01-29T07:16:27.360Z,18.20
2023-01-29T07:18:55.531Z,20.17
2023-01-29T07:21:23.597Z,20.83
2023-01-29T07:23:51.974Z,18.40
2023-01-29T07:26:20.227Z,19.83
2023-01-29T07:28:48.267Z,20.30
2023-01-29T07:31:16.649Z,18.80
2023-01-29T07:33:46.604Z,23.27
2023-01-29T07:36:15.453Z,19.57
2023-01-29T07:38:43.456Z,19.40
2023-01-29T07:41:12.939Z,17.33
2023-01-29T07:43:41.069Z,16.80
2023-01-29T07:46:09.445Z,16.10
2023-01-29T07:48:37.718Z,24.47
2023-01-29T07:51:07.505Z,26.37
2023-01-29T07:53:35.914Z,22.73
2023-01-29T07:56:04.202Z,27.23
2023-01-29T07:58:32.319Z,27.80
2023-01-29T08:01:00.314Z,24.13
2023-01-29T08:03:28.463Z,21.77
2023-01-29T08:05:56.554Z,22.27
2023-01-29T08:08:26.393Z,18.73
2023-01-29T08:10:54.484Z,19.67
2023-01-29T08:13:22.485Z,19.07
2023-01-29T08:15:50.558Z,16.63
2023-01-29T08:18:18.545Z,18.33
2023-01-29T08:20:46.564Z,15.63
2023-01-29T08:23:16.494Z,16.83
2023-01-29T08:25:46.018Z,17.00
2023-01-29T08:28:14.229Z,17.43
2023-01-29T08:30:44.150Z,19.70
2023-01-29T08:33:12.554Z,21.73
2023-01-29T08:35:41.354Z,22.57
2023-01-29T08:38:10.750Z,23.37
2023-01-29T08:40:38.960Z,19.90
2023-01-29T08:43:10.010Z,20.60
2023-01-29T08:45:41.160Z,19.17
2023-01-29T08:48:10.064Z,18.07
2023-01-29T08:50:39.008Z,15.80
2023-01-29T08:53:08.725Z,6.97
2023-01-29T08:55:37.759Z,10.03
2023-01-29T08:58:06.395Z,16.33
2023-01-29T09:00:36.538Z,12.43
2023-01-29T09:03:05.213Z,13.10
2023-01-29T09:05:33.371Z,21.03
2023-01-29T09:08:01.469Z,22.97
2023-01-29T09:10:29.470Z,17.57
2023-01-29T09:12:57.581Z,15.80
2023-01-29T09:15:25.985Z,19.60
2023-01-29T09:17:55.438Z,22.93
2023-01-29T09:20:23.849Z,28.63
2023-01-29T09:22:53.701Z,22.47
2023-01-29T09:25:21.785Z,19.93
2023-01-29T09:27:49.791Z,18.40
2023-01-29T09:30:19.095Z,21.43
2023-01-29T09:32:53.654Z,19.80
2023-01-29T09:35:24.294Z,22.27
2023-01-29T09:37:53.017Z,28.53
2023-01-29T09:40:27.215Z,23.77
2023-01-29T09:43:02.447Z,30.07
2023-01-29T09:45:31.657Z,28.40
2023-01-29T09:48:01.837Z,25.67
2023-01-29T09:50:34.524Z,32.93
2023-01-29T09:53:09.848Z,24.67
2023-01-29T09:55:43.869Z,19.90
2023-01-29T09:58:19.715Z,23.40
2023-01-29T10:00:58.316Z,20.93
2023-01-29T10:03:45.761Z,19.53
2023-01-29T10:06:29.456Z,16.60
2023-01-29T10:09:42.116Z,23.50
2023-01-29T10:12:26.086Z,21.90
2023-01-29T10:15:04.136Z,16.73
2023-01-29T10:17:56.770Z,20.33
2023-01-29T10:20:44.724Z,25.77
2023-01-29T10:23:22.899Z,20.93
2023-01-29T10:25:51.182Z,20.80
2023-01-29T10:28:22.129Z,23.80
2023-01-29T10:30:52.220Z,20.73
2023-01-29T10:33:26.147Z,21.43
2023-01-29T10:35:59.426Z,24.27
2023-01-29T10:38:40.070Z,20.83
2023-01-29T10:41:22.137Z,28.80
2023-01-29T10:44:02.848Z,28.87
2023-01-29T10:46:46.686Z,34.67
2023-01-29T10:49:31.042Z,28.27
2023-01-29T10:52:20.033Z,23.00
2023-01-29T10:55:02.033Z,26.03
2023-01-29T10:57:43.441Z,24.50
2023-01-29T11:00:15.710Z,22.63
2023-01-29T11:02:46.463Z,21.17
2023-01-29T11:05:22.723Z,27.33
2023-01-29T11:08:02.047Z,26.97
2023-01-29T11:10:34.463Z,25.70
2023-01-29T11:13:02.828Z,22.33
2023-01-29T11:15:35.001Z,25.23
2023-01-29T11:18:07.413Z,22.23
2023-01-29T11:20:35.580Z,22.00
2023-01-29T11:23:04.001Z,18.20
2023-01-29T11:25:34.110Z,17.20
2023-01-29T11:28:05.409Z,15.57
2023-01-29T11:30:36.780Z,16.70
2023-01-29T11:33:11.514Z,18.73
2023-01-29T11:35:39.744Z,17.30
2023-01-29T11:38:11.122Z,20.73
2023-01-29T11:40:44.821Z,17.40
2023-01-29T11:43:31.098Z,16.60
2023-01-29T11:46:02.059Z,17.67
2023-01-29T11:48:41.862Z,16.87
2023-01-29T11:51:13.440Z,15.50
2023-01-29T11:53:44.514Z,16.57
2023-01-29T11:56:26.909Z,17.53
2023-01-29T11:58:57.703Z,17.77
2023-01-29T12:01:33.862Z,18.17
2023-01-29T12:04:02.997Z,20.13
2023-01-29T12:06:36.678Z,17.47
2023-01-29T12:09:11.510Z,17.60
2023-01-29T12:11:41.063Z,19.87
2023-01-29T12:14:28.198Z,18.07
2023-01-29T12:17:00.957Z,18.77
2023-01-29T12:19:38.089Z,22.13
2023-01-29T12:22:12.146Z,20.70
2023-01-29T12:24:46.068Z,18.93
2023-01-29T12:27:22.418Z,20.90
2023-01-29T12:29:57.769Z,18.93
2023-01-29T12:32:33.878Z,16.80
2023-01-29T12:35:07.872Z,17.07
2023-01-29T12:37:41.799Z,18.13
2023-01-29T12:40:15.317Z,18.80
2023-01-29T12:42:49.964Z,15.83
2023-01-29T12:45:20.094Z,16.57
2023-01-29T12:47:51.260Z,18.93
2023-01-29T12:50:23.204Z,17.33
2023-01-29T12:52:55.061Z,16.20
2023-01-29T12:55:26.701Z,19.10
2023-01-29T12:57:59.850Z,35.90
2023-01-29T13:00:31.276Z,19.27
2023-01-29T13:03:05.315Z,16.70
2023-01-29T13:05:40.931Z,17.33
2023-01-29T13:08:11.822Z,17.63
2023-01-29T13:10:44.774Z,19.73
2023-01-29T13:13:20.632Z,17.97
2023-01-29T13:15:49.690Z,18.37
2023-01-29T13:18:41.238Z,19.83
2023-01-29T13:21:15.588Z,22.80
2023-01-29T13:23:48.189Z,18.00
2023-01-29T13:26:20.037Z,20.13
2023-01-29T13:28:50.590Z,42.23
2023-01-29T13:31:28.655Z,98.80
2023-01-29T13:34:05.675Z,39.43
2023-01-29T13:36:34.363Z,18.83
2023-01-29T13:39:05.046Z,17.87
2023-01-29T13:41:36.004Z,18.43
2023-01-29T13:44:08.153Z,18.38
2023-01-29T13:46:42.475Z,17.47
2023-01-29T13:49:27.204Z,16.35
2023-01-29T13:51:55.553Z,17.13
2023-01-29T13:54:28.090Z,18.70
2023-01-29T13:57:01.357Z,18.35
2023-01-29T13:59:55.270Z,16.55
2023-01-29T14:02:26.422Z,19.08
2023-01-29T14:05:39.471Z,17.08
2023-01-29T14:08:08.128Z,16.73
2023-01-29T14:10:37.351Z,18.70
2023-01-29T14:13:38.449Z,17.23
2023-01-29T14:16:30.056Z,16.77
2023-01-29T14:19:01.778Z,18.40
2023-01-29T14:21:33.635Z,20.87
2023-01-29T14:24:11.572Z,18.45
2023-01-29T14:26:46.155Z,17.17
2023-01-29T14:29:39.978Z,17.57
2023-01-29T14:32:15.980Z,19.93
2023-01-29T14:34:47.734Z,18.13
2023-01-29T14:37:30.217Z,19.03
2023-01-29T14:40:00.897Z,21.88
2023-01-29T14:42:35.469Z,21.57
2023-01-29T14:45:12.484Z,20.43
2023-01-29T14:48:02.111Z,16.87
2023-01-29T14:50:46.361Z,19.17
2023-01-29T14:53:20.979Z,20.47
2023-01-29T14:55:54.187Z,21.67
2023-01-29T14:58:27.393Z,21.47
2023-01-29T15:00:59.383Z,23.05
2023-01-29T15:03:37.285Z,21.40
2023-01-29T15:06:08.669Z,20.85
2023-01-29T15:08:42.039Z,20.75
2023-01-29T15:11:36.843Z,21.07
2023-01-29T15:14:18.999Z,24.10
2023-01-29T15:16:57.518Z,17.92
2023-01-29T15:19:29.796Z,21.87
2023-01-29T15:22:12.652Z,20.33
2023-01-29T15:24:43.629Z,21.03
2023-01-29T15:27:16.990Z,18.00
2023-01-29T15:29:49.480Z,18.83
2023-01-29T15:32:30.734Z,18.40
2023-01-29T15:35:00.535Z,20.10
2023-01-29T15:37:31.129Z,19.53
2023-01-29T15:40:01.156Z,18.40
2023-01-29T15:42:30.394Z,18.73
2023-01-29T15:44:58.428Z,17.77
2023-01-29T15:47:32.008Z,19.03
2023-01-29T15:50:01.672Z,21.20
2023-01-29T15:52:35.350Z,20.03
2023-01-29T15:55:07.017Z,20.33
2023-01-29T15:57:40.510Z,19.57
2023-01-29T16:00:21.194Z,22.20
2023-01-29T16:02:49.629Z,22.13
2023-01-29T16:05:20.570Z,20.40
2023-01-29T16:07:49.788Z,19.17
2023-01-29T16:10:21.513Z,21.35
2023-01-29T16:12:52.574Z,21.57
2023-01-29T16:15:28.390Z,22.53
2023-01-29T16:17:57.063Z,23.17
2023-01-29T16:20:35.114Z,20.53
2023-01-29T16:23:03.695Z,19.83
2023-01-29T16:25:35.261Z,21.60
2023-01-29T16:28:06.251Z,34.37
2023-01-29T16:30:34.607Z,31.60
2023-01-29T16:33:04.869Z,24.37
2023-01-29T16:35:34.231Z,21.70
2023-01-29T16:38:05.948Z,22.77
2023-01-29T16:40:38.068Z,21.17
2023-01-29T16:43:42.668Z,20.43
2023-01-29T16:46:21.136Z,19.50
2023-01-29T16:48:49.275Z,20.67
2023-01-29T16:51:25.254Z,19.07
2023-01-29T16:54:02.287Z,18.17
2023-01-29T16:56:33.869Z,21.33
2023-01-29T16:59:05.624Z,20.07
2023-01-29T17:01:36.851Z,18.73
2023-01-29T17:04:11.467Z,22.93
2023-01-29T17:06:48.978Z,20.53
2023-01-29T17:09:25.573Z,20.43
2023-01-29T17:11:58.828Z,25.80
2023-01-29T17:14:27.490Z,22.97
2023-01-29T17:16:57.159Z,21.00
2023-01-29T17:19:26.009Z,20.37
2023-01-29T17:21:54.329Z,22.17
2023-01-29T17:24:22.397Z,21.67
2023-01-29T17:26:50.532Z,19.93
2023-01-29T17:29:22.306Z,99.07
2023-01-29T17:31:50.343Z,252.47
2023-01-29T17:34:18.766Z,335.70
2023-01-29T17:36:47.135Z,159.77
2023-01-29T17:39:19.166Z,39.53
2023-01-29T17:41:50.562Z,39.67
2023-01-29T17:44:20.502Z,21.70
2023-01-29T17:46:49.611Z,21.67
2023-01-29T17:49:25.100Z,21.80
2023-01-29T17:51:53.643Z,17.73
2023-01-29T17:54:22.536Z,20.57
2023-01-29T17:56:51.199Z,22.43
2023-01-29T17:59:22.836Z,21.83
2023-01-29T18:01:51.645Z,21.77
2023-01-29T18:04:22.230Z,25.03
2023-01-29T18:06:51.730Z,23.80
2023-01-29T18:09:21.610Z,20.27
2023-01-29T18:11:51.019Z,16.97
2023-01-29T18:14:20.643Z,16.57
2023-01-29T18:16:48.839Z,16.57
2023-01-29T18:19:22.077Z,17.37
2023-01-29T18:21:50.330Z,17.30
2023-01-29T18:24:20.500Z,19.50
2023-01-29T18:26:48.619Z,23.03
2023-01-29T18:29:16.708Z,22.60
2023-01-29T18:31:48.684Z,20.93
2023-01-29T18:34:16.675Z,20.30
2023-01-29T18:36:47.758Z,19.93
2023-01-29T18:39:16.090Z,18.43
2023-01-29T18:41:44.197Z,19.03
2023-01-29T18:44:12.387Z,17.70
2023-01-29T18:46:40.368Z,19.70
2023-01-29T18:49:10.806Z,19.90
2023-01-29T18:51:38.812Z,20.47
2023-01-29T18:54:06.914Z,17.13
2023-01-29T18:56:34.956Z,16.57
2023-01-29T18:59:04.929Z,19.07
2023-01-29T19:01:34.609Z,23.27
2023-01-29T19:04:02.832Z,26.17
2023-01-29T19:06:34.972Z,29.50
2023-01-29T19:09:04.650Z,33.83
2023-01-29T19:11:32.830Z,65.03
2023-01-29T19:14:00.886Z,36.00
2023-01-29T19:16:28.894Z,28.17
2023-01-29T19:18:57.089Z,31.70
2023-01-29T19:21:25.174Z,24.50
2023-01-29T19:23:54.723Z,22.70
2023-01-29T19:26:22.941Z,24.50
2023-01-29T19:28:51.177Z,28.63
2023-01-29T19:31:19.354Z,25.93
2023-01-29T19:33:47.374Z,29.17
2023-01-29T19:36:15.420Z,27.50
2023-01-29T19:38:43.488Z,47.50
2023-01-29T19:41:13.035Z,40.13
2023-01-29T19:43:42.108Z,32.27
2023-01-29T19:46:11.162Z,37.33
2023-01-29T19:48:39.354Z,26.33
2023-01-29T19:51:09.643Z,33.70
2023-01-29T19:53:38.589Z,30.50
2023-01-29T19:56:08.823Z,30.47
2023-01-29T19:58:38.528Z,29.27
2023-01-29T20:01:09.348Z,25.43
2023-01-29T20:03:38.159Z,25.10
2023-01-29T20:06:07.508Z,23.03
2023-01-29T20:08:36.772Z,21.00
2023-01-29T20:11:05.641Z,22.00
2023-01-29T20:13:34.242Z,24.37
2023-01-29T20:16:05.464Z,20.90
2023-01-29T20:18:34.076Z,22.90
2023-01-29T20:21:08.099Z,20.53
2023-01-29T20:23:38.614Z,20.97
2023-01-29T20:26:08.355Z,24.00
2023-01-29T20:28:36.831Z,19.73
2023-01-29T20:31:07.749Z,21.83
2023-01-29T20:33:38.888Z,27.50
2023-01-29T20:36:10.072Z,31.53
2023-01-29T20:38:38.367Z,26.43
2023-01-29T20:41:08.142Z,28.20
2023-01-29T20:43:36.474Z,25.67
2023-01-29T20:46:04.992Z,32.37
2023-01-29T20:48:34.663Z,38.00
2023-01-29T20:51:09.443Z,35.27
2023-01-29T20:53:38.297Z,28.87
2023-01-29T20:56:07.759Z,30.77
2023-01-29T20:58:36.217Z,30.17
2023-01-29T21:01:09.008Z,27.13
2023-01-29T21:03:39.223Z,29.13
2023-01-29T21:06:08.770Z,23.80
2023-01-29T21:08:37.164Z,26.20
2023-01-29T21:11:06.301Z,23.27
2023-01-29T21:13:34.442Z,23.63
2023-01-29T21:16:02.664Z,24.43
2023-01-29T21:18:31.739Z,21.73
2023-01-29T21:21:01.202Z,23.50
2023-01-29T21:23:29.419Z,25.57
2023-01-29T21:26:02.621Z,29.03
2023-01-29T21:28:30.807Z,25.97
2023-01-29T21:31:06.523Z,23.13
2023-01-29T21:33:35.377Z,25.47
2023-01-29T21:36:05.673Z,27.47
2023-01-29T21:38:33.965Z,28.20
2023-01-29T21:41:02.997Z,26.60
2023-01-29T21:43:30.444Z,23.80
2023-01-29T21:45:59.337Z,26.73
2023-01-29T21:48:27.752Z,25.37
2023-01-29T21:50:55.918Z,30.07
2023-01-29T21:53:25.362Z,30.27
2023-01-29T21:55:53.343Z,24.27
2023-01-29T21:58:21.360Z,38.73
2023-01-29T22:00:49.817Z,38.33
2023-01-29T22:03:18.019Z,46.70
2023-01-29T22:05:46.102Z,37.53
2023-01-29T22:08:14.119Z,36.73
2023-01-29T22:10:43.536Z,45.67
2023-01-29T22:13:11.711Z,34.33
2023-01-29T22:15:39.854Z,75.60
2023-01-29T22:18:07.861Z,28.60
2023-01-29T22:20:36.737Z,32.80
2023-01-29T22:23:04.861Z,69.13
2023-01-29T22:25:33.556Z,48.97
2023-01-29T22:28:02.948Z,42.43
2023-01-29T22:30:30.966Z,24.63
2023-01-29T22:32:58.914Z,26.80
2023-01-29T22:35:27.050Z,31.70
2023-01-29T22:37:55.307Z,43.97
2023-01-29T22:40:23.458Z,47.67
2023-01-29T22:42:51.414Z,35.83
2023-01-29T22:45:20.960Z,74.00
2023-01-29T22:47:49.012Z,42.20
2023-01-29T22:50:17.480Z,47.67
2023-01-29T22:52:54.039Z,91.00
2023-01-29T22:55:22.590Z,43.93
2023-01-29T22:57:51.176Z,67.40
2023-01-29T23:00:21.753Z,27.37
2023-01-29T23:02:50.082Z,39.90
2023-01-29T23:05:18.769Z,36.03
2023-01-29T23:07:46.845Z,23.77
2023-01-29T23:10:15.987Z,24.20
2023-01-29T23:12:44.307Z,30.50
2023-01-29T23:15:12.628Z,30.37
2023-01-29T23:17:41.966Z,33.93
2023-01-29T23:20:11.106Z,32.20
2023-01-29T23:22:39.272Z,29.50
2023-01-29T23:25:08.191Z,25.87
2023-01-29T23:27:35.447Z,28.07
2023-01-29T23:30:03.446Z,25.57
2023-01-29T23:32:31.599Z,22.73
2023-01-29T23:35:00.930Z,22.53
2023-01-29T23:37:28.936Z,19.23
2023-01-29T23:39:57.048Z,19.83
2023-01-29T23:42:25.064Z,24.33
2023-01-29T23:44:53.210Z,23.07
2023-01-29T23:47:21.198Z,20.50
2023-01-29T23:49:49.339Z,20.47
2023-01-29T23:52:18.805Z,19.30
2023-01-29T23:54:46.737Z,19.83
2023-01-29T23:57:14.736Z,21.57
2023-01-29T23:59:42.782Z,21.80
